Time;durP1;ratioP1;P1;durP2;ratioP2;P2;SDS_P1;SDS_P2;PMS_P1;PMS_P2;Temp;Humidity;BMP_temperature;BMP_pressure;BME280_temperature;BME280_humidity;BME280_pressure;Samples;Min_cycle;Max_cycle;Signal;HPM_P1;HPM_P2
2023/06/15 00:01:47;;;;;;;3.70;3.30;;;;;;;;;;5093408;28;20481;-57
2023/06/15 00:04:14;;;;;;;3.83;3.13;;;;;;;;;;5093349;28;20453;-59
2023/06/15 00:06:41;;;;;;;4.20;3.27;;;;;;;;;;5093234;28;20478;-58
2023/06/15 00:09:09;;;;;;;3.87;3.57;;;;;;;;;;5093080;28;20452;-57
2023/06/15 00:11:36;;;;;;;4.80;3.70;;;;;;;;;;5093085;28;20455;-57
2023/06/15 00:14:03;;;;;;;3.70;3.40;;;;;;;;;;5093497;28;20537;-58
2023/06/15 00:16:31;;;;;;;3.87;3.50;;;;;;;;;;5092866;28;20962;-57
2023/06/15 00:18:58;;;;;;;3.97;3.57;;;;;;;;;;5093107;28;20486;-59
2023/06/15 00:21:26;;;;;;;6.40;3.50;;;;;;;;;;5093082;28;20454;-57
2023/06/15 00:23:53;;;;;;;4.17;3.87;;;;;;;;;;5092907;28;20461;-57
2023/06/15 00:26:21;;;;;;;3.67;3.37;;;;;;;;;;5093089;28;20557;-58
2023/06/15 00:28:48;;;;;;;4.53;4.10;;;;;;;;;;5092993;28;20451;-57
2023/06/15 00:31:15;;;;;;;4.73;3.50;;;;;;;;;;5092747;28;20949;-57
2023/06/15 00:33:42;;;;;;;4.00;3.60;;;;;;;;;;5092932;28;20496;-57
2023/06/15 00:36:12;;;;;;;4.70;3.83;;;;;;;;;;5091946;28;20558;-57
2023/06/15 00:38:39;;;;;;;4.53;4.13;;;;;;;;;;5092682;28;20843;-58
2023/06/15 00:41:05;;;;;;;3.77;3.47;;;;;;;;;;5092974;28;20456;-59
2023/06/15 00:43:35;;;;;;;4.30;3.40;;;;;;;;;;5092925;28;21000;-58
2023/06/15 00:46:02;;;;;;;5.80;3.60;;;;;;;;;;5092701;28;20536;-58
2023/06/15 00:48:29;;;;;;;5.60;3.93;;;;;;;;;;5092753;28;20445;-57
2023/06/15 00:50:56;;;;;;;3.90;3.27;;;;;;;;;;5092665;28;20449;-57
2023/06/15 00:53:23;;;;;;;5.27;4.07;;;;;;;;;;5092911;28;20452;-57
2023/06/15 00:55:51;;;;;;;4.50;3.67;;;;;;;;;;5092534;28;20485;-57
2023/06/15 00:58:18;;;;;;;10.17;3.53;;;;;;;;;;5092536;28;20579;-57
2023/06/15 01:00:48;;;;;;;4.97;4.43;;;;;;;;;;5092666;28;20590;-57
2023/06/15 01:03:15;;;;;;;4.63;4.23;;;;;;;;;;5092603;28;20444;-57
2023/06/15 01:05:44;;;;;;;4.17;3.87;;;;;;;;;;5092502;28;20535;-57
2023/06/15 01:08:15;;;;;;;5.13;3.23;;;;;;;;;;5092710;28;20453;-58
2023/06/15 01:10:42;;;;;;;4.10;3.70;;;;;;;;;;5092538;28;20987;-57
2023/06/15 01:13:12;;;;;;;4.10;3.80;;;;;;;;;;5092432;28;20455;-57
2023/06/15 01:15:39;;;;;;;3.97;3.60;;;;;;;;;;5092545;28;20449;-59
2023/06/15 01:18:09;;;;;;;4.60;3.70;;;;;;;;;;5092412;28;20552;-57
2023/06/15 01:20:38;;;;;;;4.23;3.60;;;;;;;;;;5092681;28;20453;-57
2023/06/15 01:23:10;;;;;;;4.27;3.67;;;;;;;;;;5092477;28;20517;-57
2023/06/15 01:25:41;;;;;;;4.77;3.90;;;;;;;;;;5092515;28;20453;-58
2023/06/15 01:28:10;;;;;;;4.73;3.57;;;;;;;;;;5092355;28;20999;-58
2023/06/15 01:30:39;;;;;;;4.67;4.27;;;;;;;;;;5092249;28;20449;-58
2023/06/15 01:33:06;;;;;;;3.73;3.43;;;;;;;;;;5092516;28;20895;-58
2023/06/15 01:35:33;;;;;;;5.73;3.37;;;;;;;;;;5092439;28;20542;-58
2023/06/15 01:37:59;;;;;;;4.13;3.73;;;;;;;;;;5092351;28;20573;-58
2023/06/15 01:40:27;;;;;;;4.03;3.73;;;;;;;;;;5092305;28;20548;-58
2023/06/15 01:42:54;;;;;;;5.93;3.93;;;;;;;;;;5092211;28;20452;-58
2023/06/15 01:45:22;;;;;;;7.80;3.50;;;;;;;;;;5092133;28;20540;-58
2023/06/15 01:47:50;;;;;;;4.00;3.20;;;;;;;;;;5093965;28;20455;-58
2023/06/15 01:50:17;;;;;;;14.23;4.80;;;;;;;;;;5095944;28;20877;-58
2023/06/15 01:52:44;;;;;;;5.83;4.67;;;;;;;;;;5095859;28;20497;-59
2023/06/15 01:55:12;;;;;;;4.20;3.80;;;;;;;;;;5095516;28;21040;-60
2023/06/15 01:57:39;;;;;;;3.27;3.07;;;;;;;;;;5095464;28;20476;-58
2023/06/15 02:00:08;;;;;;;4.00;3.50;;;;;;;;;;5095750;28;20453;-57
2023/06/15 02:02:36;;;;;;;4.83;4.13;;;;;;;;;;5095661;28;20515;-57
2023/06/15 02:05:05;;;;;;;4.93;3.73;;;;;;;;;;5095586;28;20444;-57
2023/06/15 02:07:32;;;;;;;4.10;3.80;;;;;;;;;;5095526;28;20519;-57
2023/06/15 02:09:59;;;;;;;4.00;3.70;;;;;;;;;;5095400;28;20449;-59
2023/06/15 02:12:26;;;;;;;6.87;3.40;;;;;;;;;;5095289;28;20523;-57
2023/06/15 02:14:54;;;;;;;4.27;3.90;;;;;;;;;;5095438;28;20503;-58
2023/06/15 02:17:23;;;;;;;3.97;3.67;;;;;;;;;;5095225;28;20499;-57
2023/06/15 02:19:51;;;;;;;4.10;3.80;;;;;;;;;;5095318;28;20449;-57
2023/06/15 02:22:18;;;;;;;4.63;4.20;;;;;;;;;;5095243;28;20455;-57
2023/06/15 02:24:45;;;;;;;4.60;3.50;;;;;;;;;;5095079;28;20541;-59
2023/06/15 02:27:12;;;;;;;4.93;4.00;;;;;;;;;;5095301;28;20445;-58
2023/06/15 02:29:39;;;;;;;3.60;3.30;;;;;;;;;;5095162;28;20809;-58
2023/06/15 02:32:06;;;;;;;8.40;4.17;;;;;;;;;;5095039;28;20792;-59
2023/06/15 02:34:33;;;;;;;4.00;3.60;;;;;;;;;;5094955;28;20449;-58
2023/06/15 02:37:02;;;;;;;6.83;4.27;;;;;;;;;;5094874;28;20497;-58
2023/06/15 02:39:29;;;;;;;4.47;4.07;;;;;;;;;;5094823;28;20531;-58
2023/06/15 02:41:55;;;;;;;5.60;4.10;;;;;;;;;;5095165;28;20450;-58
2023/06/15 02:44:22;;;;;;;4.57;4.17;;;;;;;;;;5094876;28;20476;-58
2023/06/15 02:46:49;;;;;;;5.43;4.13;;;;;;;;;;5094771;28;20540;-58
2023/06/15 02:49:18;;;;;;;4.00;3.70;;;;;;;;;;5094670;28;20451;-58
2023/06/15 02:51:45;;;;;;;4.20;3.90;;;;;;;;;;5094703;28;20535;-58
2023/06/15 02:54:13;;;;;;;3.90;3.53;;;;;;;;;;5094850;28;20515;-58
2023/06/15 02:56:41;;;;;;;5.20;3.97;;;;;;;;;;5094341;28;20476;-58
2023/06/15 02:59:09;;;;;;;4.50;4.20;;;;;;;;;;5093694;28;20821;-58
2023/06/15 03:01:38;;;;;;;5.27;4.10;;;;;;;;;;5094461;28;20448;-57
2023/06/15 03:04:09;;;;;;;5.73;3.83;;;;;;;;;;5094375;28;20456;-58
2023/06/15 03:06:36;;;;;;;5.73;3.60;;;;;;;;;;5094276;28;20445;-58
2023/06/15 03:09:03;;;;;;;4.37;3.70;;;;;;;;;;5094415;28;20543;-58
2023/06/15 03:11:31;;;;;;;4.10;3.80;;;;;;;;;;5094368;28;20539;-58
2023/06/15 03:13:58;;;;;;;4.37;3.60;;;;;;;;;;5094202;28;20459;-58
2023/06/15 03:16:25;;;;;;;7.13;3.90;;;;;;;;;;5094106;28;20444;-58
2023/06/15 03:18:53;;;;;;;4.90;4.30;;;;;;;;;;5093858;28;20478;-58
2023/06/15 03:21:22;;;;;;;4.40;3.80;;;;;;;;;;5094257;28;20460;-58
2023/06/15 03:23:49;;;;;;;5.63;3.40;;;;;;;;;;5094146;28;20456;-58
2023/06/15 03:26:17;;;;;;;4.13;3.80;;;;;;;;;;5094264;28;20513;-58
2023/06/15 03:28:45;;;;;;;4.97;4.10;;;;;;;;;;5093950;28;20460;-58
2023/06/15 03:31:12;;;;;;;4.80;4.40;;;;;;;;;;5093837;28;20544;-59
2023/06/15 03:33:39;;;;;;;4.23;3.73;;;;;;;;;;5093732;28;20475;-58
2023/06/15 03:36:08;;;;;;;4.03;3.73;;;;;;;;;;5093966;28;20535;-58
2023/06/15 03:38:35;;;;;;;8.60;4.03;;;;;;;;;;5093786;28;20485;-58
2023/06/15 03:41:02;;;;;;;4.43;3.57;;;;;;;;;;5093766;28;20565;-58
2023/06/15 03:43:29;;;;;;;4.63;3.70;;;;;;;;;;5093618;28;20450;-58
2023/06/15 03:45:57;;;;;;;3.90;3.60;;;;;;;;;;5093403;28;20452;-59
2023/06/15 03:48:24;;;;;;;4.43;3.53;;;;;;;;;;5093755;28;20485;-58
2023/06/15 03:50:51;;;;;;;11.33;5.90;;;;;;;;;;5093669;28;20547;-59
2023/06/15 03:53:18;;;;;;;5.70;3.80;;;;;;;;;;5093551;28;20563;-58
2023/06/15 03:55:45;;;;;;;5.13;3.70;;;;;;;;;;5093308;28;20456;-58
2023/06/15 03:58:12;;;;;;;3.40;3.10;;;;;;;;;;5093442;28;20484;-58
2023/06/15 04:00:40;;;;;;;10.53;3.93;;;;;;;;;;5093238;28;20452;-58
2023/06/15 04:03:09;;;;;;;4.27;3.87;;;;;;;;;;5093463;28;20460;-59
2023/06/15 04:05:36;;;;;;;7.30;4.60;;;;;;;;;;5093371;28;20539;-59
2023/06/15 04:08:03;;;;;;;16.73;6.30;;;;;;;;;;5093234;28;20481;-59
2023/06/15 04:10:30;;;;;;;6.20;3.70;;;;;;;;;;5093180;28;20477;-59
2023/06/15 04:12:57;;;;;;;7.70;4.53;;;;;;;;;;5093010;28;20448;-59
2023/06/15 04:15:24;;;;;;;4.47;4.07;;;;;;;;;;5093285;28;20443;-59
2023/06/15 04:17:51;;;;;;;3.90;3.60;;;;;;;;;;5093195;28;20448;-59
2023/06/15 04:20:21;;;;;;;4.10;3.70;;;;;;;;;;5093388;28;20890;-59
2023/06/15 04:22:47;;;;;;;4.67;4.17;;;;;;;;;;5093065;28;20452;-59
2023/06/15 04:25:16;;;;;;;6.17;3.60;;;;;;;;;;5093027;28;20901;-59
2023/06/15 04:27:44;;;;;;;4.33;3.93;;;;;;;;;;5092821;28;20455;-59
2023/06/15 04:30:16;;;;;;;4.87;3.93;;;;;;;;;;5093152;28;20448;-59
2023/06/15 04:32:43;;;;;;;4.30;3.90;;;;;;;;;;5093130;28;20456;-59
2023/06/15 04:35:17;;;;;;;4.63;3.53;;;;;;;;;;5092921;28;20452;-59
2023/06/15 04:37:45;;;;;;;3.73;3.40;;;;;;;;;;5092786;28;20450;-59
2023/06/15 04:40:13;;;;;;;3.90;3.70;;;;;;;;;;5092695;28;20535;-59
2023/06/15 04:42:40;;;;;;;7.60;3.90;;;;;;;;;;5092937;28;20513;-59
2023/06/15 04:45:08;;;;;;;4.33;3.40;;;;;;;;;;5092871;28;20501;-59
2023/06/15 04:47:35;;;;;;;4.10;3.70;;;;;;;;;;5092723;28;20505;-58
2023/06/15 04:50:03;;;;;;;7.70;3.27;;;;;;;;;;5092754;28;20452;-59
2023/06/15 04:52:30;;;;;;;6.60;4.50;;;;;;;;;;5092541;28;20452;-59
2023/06/15 04:54:58;;;;;;;5.63;4.50;;;;;;;;;;5092720;28;20826;-59
2023/06/15 04:57:25;;;;;;;5.40;3.40;;;;;;;;;;5092797;28;20867;-59
2023/06/15 04:59:52;;;;;;;5.00;3.73;;;;;;;;;;5092607;28;20487;-59
2023/06/15 05:02:19;;;;;;;3.87;3.57;;;;;;;;;;5092697;28;20462;-59
2023/06/15 05:04:46;;;;;;;6.73;4.20;;;;;;;;;;5092735;28;20456;-59
2023/06/15 05:07:13;;;;;;;4.70;4.10;;;;;;;;;;5092413;28;20492;-59
2023/06/15 05:09:40;;;;;;;4.20;3.87;;;;;;;;;;5092940;28;20495;-59
2023/06/15 05:12:09;;;;;;;4.77;4.10;;;;;;;;;;5092657;28;20447;-59
2023/06/15 05:14:36;;;;;;;5.00;4.10;;;;;;;;;;5092538;28;20447;-59
2023/06/15 05:17:03;;;;;;;8.27;5.37;;;;;;;;;;5092490;28;20825;-59
2023/06/15 05:19:30;;;;;;;6.60;3.83;;;;;;;;;;5092458;28;20490;-59
2023/06/15 05:22:00;;;;;;;6.27;4.40;;;;;;;;;;5092761;28;20451;-60
2023/06/15 05:24:27;;;;;;;4.53;3.40;;;;;;;;;;5096225;28;20931;-59
2023/06/15 05:26:53;;;;;;;5.33;3.93;;;;;;;;;;5096316;28;20534;-59
2023/06/15 05:29:22;;;;;;;4.10;3.17;;;;;;;;;;5096110;28;20987;-59
2023/06/15 05:31:49;;;;;;;4.93;3.67;;;;;;;;;;5096305;28;20512;-59
2023/06/15 05:34:16;;;;;;;4.00;3.60;;;;;;;;;;5095978;28;20820;-59
2023/06/15 05:36:43;;;;;;;4.13;3.73;;;;;;;;;;5096111;28;20453;-59
2023/06/15 05:39:11;;;;;;;5.60;3.27;;;;;;;;;;5095949;28;20484;-59
2023/06/15 05:41:38;;;;;;;4.10;3.80;;;;;;;;;;5096081;28;20487;-57
2023/06/15 05:44:05;;;;;;;5.43;4.93;;;;;;;;;;5096029;28;20459;-59
2023/06/15 05:46:33;;;;;;;4.10;3.60;;;;;;;;;;5095732;28;20456;-59
2023/06/15 05:49:00;;;;;;;5.40;4.23;;;;;;;;;;5095690;28;20535;-59
2023/06/15 05:51:27;;;;;;;4.43;3.37;;;;;;;;;;5095846;28;20472;-59
2023/06/15 05:53:54;;;;;;;7.10;3.47;;;;;;;;;;5095675;28;21105;-59
2023/06/15 05:56:24;;;;;;;4.23;3.90;;;;;;;;;;5095387;28;20475;-59
2023/06/15 05:58:51;;;;;;;4.33;3.90;;;;;;;;;;5095679;28;21071;-59
2023/06/15 06:01:18;;;;;;;5.63;4.03;;;;;;;;;;5095520;28;20448;-59
2023/06/15 06:03:46;;;;;;;5.43;3.93;;;;;;;;;;5095684;28;20456;-59
2023/06/15 06:06:13;;;;;;;3.97;3.67;;;;;;;;;;5095461;28;20453;-59
2023/06/15 06:08:40;;;;;;;4.10;3.70;;;;;;;;;;5095387;28;20483;-59
2023/06/15 06:11:09;;;;;;;5.13;3.57;;;;;;;;;;5095355;28;20441;-59
2023/06/15 06:13:36;;;;;;;4.93;4.03;;;;;;;;;;5095301;28;21007;-59
2023/06/15 06:16:03;;;;;;;8.27;4.63;;;;;;;;;;5095238;28;20540;-59
2023/06/15 06:18:30;;;;;;;4.47;4.17;;;;;;;;;;5095621;28;20446;-59
2023/06/15 06:20:58;;;;;;;4.60;4.17;;;;;;;;;;5095278;28;20903;-59
2023/06/15 06:23:25;;;;;;;5.17;3.90;;;;;;;;;;5095278;28;20548;-59
2023/06/15 06:25:52;;;;;;;3.63;3.30;;;;;;;;;;5095100;28;20454;-59
2023/06/15 06:28:19;;;;;;;4.03;3.73;;;;;;;;;;5094941;28;20801;-59
2023/06/15 06:30:46;;;;;;;3.83;3.53;;;;;;;;;;5095295;28;20453;-59
2023/06/15 06:33:13;;;;;;;3.63;3.33;;;;;;;;;;5094572;28;20539;-59
2023/06/15 06:35:41;;;;;;;3.73;3.43;;;;;;;;;;5094417;28;20536;-59
2023/06/15 06:38:12;;;;;;;8.10;4.17;;;;;;;;;;5095003;28;20449;-64
2023/06/15 06:40:39;;;;;;;5.20;4.03;;;;;;;;;;5094933;28;20490;-60
2023/06/15 06:43:06;;;;;;;11.50;4.70;;;;;;;;;;5094700;28;20445;-60
2023/06/15 06:45:33;;;;;;;4.80;3.97;;;;;;;;;;5094882;28;20450;-58
2023/06/15 06:48:00;;;;;;;5.10;3.73;;;;;;;;;;5094666;28;20971;-58
2023/06/15 06:50:27;;;;;;;5.20;4.30;;;;;;;;;;5094679;28;20795;-59
2023/06/15 06:52:54;;;;;;;4.97;3.67;;;;;;;;;;5094483;28;20453;-57
2023/06/15 06:55:22;;;;;;;5.10;4.10;;;;;;;;;;5094066;28;20540;-57
2023/06/15 06:57:49;;;;;;;4.30;4.00;;;;;;;;;;5094266;28;20553;-57
2023/06/15 07:00:16;;;;;;;9.83;3.83;;;;;;;;;;5094343;28;20576;-58
2023/06/15 07:02:43;;;;;;;4.73;4.33;;;;;;;;;;5094273;28;20941;-59
2023/06/15 07:05:10;;;;;;;5.27;3.90;;;;;;;;;;5094371;28;20507;-58
2023/06/15 07:07:38;;;;;;;4.10;3.80;;;;;;;;;;5094053;28;21027;-58
2023/06/15 07:10:05;;;;;;;4.80;4.40;;;;;;;;;;5094342;28;20451;-58
2023/06/15 07:12:33;;;;;;;4.90;4.50;;;;;;;;;;5094366;28;20449;-58
2023/06/15 07:15:00;;;;;;;5.83;4.03;;;;;;;;;;5094229;28;20537;-58
2023/06/15 07:17:27;;;;;;;4.93;4.43;;;;;;;;;;5094180;28;20442;-58
2023/06/15 07:19:54;;;;;;;11.20;4.00;;;;;;;;;;5094057;28;20846;-58
2023/06/15 07:22:21;;;;;;;4.37;3.60;;;;;;;;;;5094037;28;20544;-58
2023/06/15 07:24:48;;;;;;;4.47;4.07;;;;;;;;;;5093879;28;20482;-58
2023/06/15 07:27:15;;;;;;;4.53;4.20;;;;;;;;;;5093996;28;20537;-58
2023/06/15 07:29:43;;;;;;;5.10;3.83;;;;;;;;;;5094141;28;20457;-58
2023/06/15 07:32:10;;;;;;;8.73;4.23;;;;;;;;;;5093823;28;20457;-58
2023/06/15 07:34:37;;;;;;;6.83;4.13;;;;;;;;;;5093714;28;20542;-58
2023/06/15 07:37:04;;;;;;;4.40;4.10;;;;;;;;;;5093531;28;20524;-59
2023/06/15 07:39:31;;;;;;;4.60;4.20;;;;;;;;;;5093453;28;20567;-58
2023/06/15 07:41:58;;;;;;;4.60;4.20;;;;;;;;;;5093747;28;20453;-58
2023/06/15 07:44:25;;;;;;;4.53;4.20;;;;;;;;;;5093795;28;20443;-58
2023/06/15 07:46:53;;;;;;;4.60;3.87;;;;;;;;;;5093288;28;20455;-58
2023/06/15 07:49:20;;;;;;;4.97;3.90;;;;;;;;;;5093411;28;20593;-58
2023/06/15 07:51:47;;;;;;;4.70;4.40;;;;;;;;;;5093310;28;20802;-58
2023/06/15 07:54:14;;;;;;;7.63;4.40;;;;;;;;;;5093355;28;20447;-58
2023/06/15 07:56:42;;;;;;;8.80;4.60;;;;;;;;;;5093212;28;20510;-58
2023/06/15 07:59:09;;;;;;;4.87;4.33;;;;;;;;;;5093231;28;20980;-58
2023/06/15 08:01:36;;;;;;;5.47;4.20;;;;;;;;;;5093294;28;20814;-59
2023/06/15 08:04:04;;;;;;;4.47;4.07;;;;;;;;;;5093502;28;20450;-58
2023/06/15 08:06:31;;;;;;;4.30;3.93;;;;;;;;;;5093097;28;20488;-58
2023/06/15 08:08:58;;;;;;;4.43;4.10;;;;;;;;;;5093290;28;20445;-58
2023/06/15 08:11:26;;;;;;;11.20;4.13;;;;;;;;;;5093239;28;20806;-58
2023/06/15 08:13:53;;;;;;;5.67;4.40;;;;;;;;;;5093168;28;20446;-58
2023/06/15 08:16:19;;;;;;;6.47;4.60;;;;;;;;;;5093121;28;20478;-58
2023/06/15 08:18:46;;;;;;;6.67;4.30;;;;;;;;;;5092983;28;20449;-58
2023/06/15 08:21:17;;;;;;;5.40;4.90;;;;;;;;;;5093112;28;21049;-58
2023/06/15 08:23:43;;;;;;;7.03;4.00;;;;;;;;;;5093104;28;20471;-58
2023/06/15 08:26:10;;;;;;;6.90;4.10;;;;;;;;;;5093006;28;20479;-58
2023/06/15 08:28:37;;;;;;;6.53;4.50;;;;;;;;;;5093014;28;20549;-58
2023/06/15 08:31:04;;;;;;;4.87;4.47;;;;;;;;;;5092917;28;20451;-58
2023/06/15 08:33:31;;;;;;;7.27;4.53;;;;;;;;;;5092829;28;20451;-59
2023/06/15 08:35:59;;;;;;;4.73;4.43;;;;;;;;;;5092976;28;20447;-58
2023/06/15 08:38:27;;;;;;;4.37;3.90;;;;;;;;;;5092997;28;20469;-58
2023/06/15 08:40:54;;;;;;;4.73;4.13;;;;;;;;;;5092849;28;20517;-58
2023/06/15 08:43:21;;;;;;;7.13;4.20;;;;;;;;;;5092735;28;21011;-58
2023/06/15 08:45:49;;;;;;;4.90;4.57;;;;;;;;;;5092722;28;20983;-59
2023/06/15 08:48:18;;;;;;;5.10;4.60;;;;;;;;;;5092846;28;20859;-58
2023/06/15 08:50:45;;;;;;;9.73;4.50;;;;;;;;;;5092860;28;20455;-59
2023/06/15 08:53:14;;;;;;;5.00;4.60;;;;;;;;;;5092791;28;20462;-59
2023/06/15 08:55:42;;;;;;;6.13;4.63;;;;;;;;;;5092592;28;20521;-58
2023/06/15 08:58:10;;;;;;;5.70;4.80;;;;;;;;;;5095128;28;20452;-58
2023/06/15 09:00:37;;;;;;;6.53;4.37;;;;;;;;;;5096624;28;20799;-58
2023/06/15 09:03:05;;;;;;;6.00;4.67;;;;;;;;;;5097061;28;20447;-58
2023/06/15 09:05:32;;;;;;;5.60;5.10;;;;;;;;;;5096375;28;20461;-58
2023/06/15 09:07:59;;;;;;;5.40;5.00;;;;;;;;;;5096555;28;20446;-58
2023/06/15 09:10:27;;;;;;;9.33;4.53;;;;;;;;;;5096436;28;20458;-58
2023/06/15 09:12:56;;;;;;;5.37;4.43;;;;;;;;;;5096472;28;20450;-59
2023/06/15 09:15:23;;;;;;;5.13;4.60;;;;;;;;;;5096406;28;20818;-58
2023/06/15 09:17:51;;;;;;;6.33;5.00;;;;;;;;;;5096314;28;21025;-58
2023/06/15 09:20:19;;;;;;;4.97;4.50;;;;;;;;;;5096455;28;20584;-58
2023/06/15 09:22:47;;;;;;;6.37;4.80;;;;;;;;;;5096404;28;20883;-58
2023/06/15 09:25:14;;;;;;;9.30;4.43;;;;;;;;;;5096393;28;20893;-58
2023/06/15 09:27:42;;;;;;;6.27;4.40;;;;;;;;;;5096241;28;21009;-58
2023/06/15 09:30:13;;;;;;;5.07;4.47;;;;;;;;;;5096433;28;20483;-58
2023/06/15 09:32:41;;;;;;;4.60;4.17;;;;;;;;;;5096332;28;20451;-57
2023/06/15 09:35:09;;;;;;;7.30;4.30;;;;;;;;;;5096555;28;20451;-58
2023/06/15 09:37:37;;;;;;;6.50;4.70;;;;;;;;;;5096050;28;20459;-58
2023/06/15 09:40:10;;;;;;;5.83;5.30;;;;;;;;;;5095825;28;20474;-58
2023/06/15 09:42:37;;;;;;;6.70;4.60;;;;;;;;;;5096156;28;20806;-58
2023/06/15 09:45:05;;;;;;;8.13;5.10;;;;;;;;;;5096058;28;20538;-58
2023/06/15 09:47:33;;;;;;;4.40;4.00;;;;;;;;;;5095847;28;20951;-59
2023/06/15 09:50:00;;;;;;;6.60;4.10;;;;;;;;;;5095967;28;20538;-58
2023/06/15 09:52:27;;;;;;;4.50;4.10;;;;;;;;;;5095801;28;20479;-59
2023/06/15 09:54:54;;;;;;;4.90;4.43;;;;;;;;;;5095962;28;20506;-58
2023/06/15 09:57:21;;;;;;;8.07;4.80;;;;;;;;;;5096094;28;20446;-59
2023/06/15 09:59:48;;;;;;;7.43;4.70;;;;;;;;;;5095719;28;20514;-58
2023/06/15 10:02:17;;;;;;;4.80;4.43;;;;;;;;;;5095617;28;20447;-58
2023/06/15 10:04:47;;;;;;;4.60;4.10;;;;;;;;;;5095597;28;20454;-59
2023/06/15 10:07:14;;;;;;;4.80;4.40;;;;;;;;;;5095627;28;20462;-59
2023/06/15 10:09:46;;;;;;;5.23;4.73;;;;;;;;;;5095494;28;20536;-58
2023/06/15 10:12:14;;;;;;;6.10;4.43;;;;;;;;;;5095612;28;20490;-59
2023/06/15 10:14:46;;;;;;;7.83;5.00;;;;;;;;;;5095539;28;20810;-58
2023/06/15 10:17:14;;;;;;;5.20;4.83;;;;;;;;;;5095456;28;20500;-58
2023/06/15 10:19:44;;;;;;;6.27;4.77;;;;;;;;;;5095449;28;20960;-59
2023/06/15 10:22:16;;;;;;;5.30;4.27;;;;;;;;;;5095521;28;20450;-59
2023/06/15 10:24:44;;;;;;;4.97;4.13;;;;;;;;;;5095680;28;20486;-59
2023/06/15 10:27:11;;;;;;;4.60;4.30;;;;;;;;;;5095288;28;20457;-59
2023/06/15 10:29:40;;;;;;;6.40;4.50;;;;;;;;;;5095099;28;20443;-59
2023/06/15 10:32:10;;;;;;;4.00;3.60;;;;;;;;;;5095030;28;20443;-59
2023/06/15 10:34:40;;;;;;;5.00;4.60;;;;;;;;;;5095206;28;20443;-59
2023/06/15 10:37:10;;;;;;;9.87;4.70;;;;;;;;;;5095102;28;20450;-59
2023/06/15 10:39:41;;;;;;;4.50;3.83;;;;;;;;;;5094985;28;20534;-58
2023/06/15 10:42:08;;;;;;;6.33;4.40;;;;;;;;;;5095205;28;20462;-60
2023/06/15 10:44:36;;;;;;;5.57;4.23;;;;;;;;;;5094791;28;20450;-59
2023/06/15 10:47:06;;;;;;;5.83;4.50;;;;;;;;;;5095019;28;20479;-59
2023/06/15 10:49:33;;;;;;;4.77;4.37;;;;;;;;;;5094865;28;20791;-59
2023/06/15 10:52:00;;;;;;;7.00;3.90;;;;;;;;;;5094782;28;20454;-60
2023/06/15 10:54:27;;;;;;;4.17;3.87;;;;;;;;;;5094613;28;20489;-59
2023/06/15 10:56:57;;;;;;;5.23;3.90;;;;;;;;;;5094615;28;20538;-58
2023/06/15 10:59:41;;;;;;;4.77;4.20;;;;;;;;;;5094355;28;20454;-59
2023/06/15 11:02:22;;;;;;;4.60;4.17;;;;;;;;;;5094651;28;20447;-58
2023/06/15 11:04:52;;;;;;;6.13;3.90;;;;;;;;;;5085990;28;20457;-58
2023/06/15 11:07:27;;;;;;;6.30;3.83;;;;;;;;;;5094360;28;20462;-59
2023/06/15 11:09:57;;;;;;;4.47;4.07;;;;;;;;;;5094397;28;20534;-58
2023/06/15 11:12:35;;;;;;;5.27;3.93;;;;;;;;;;5094264;28;20543;-59
2023/06/15 11:15:02;;;;;;;3.43;3.23;;;;;;;;;;5094286;28;20443;-58
2023/06/15 11:17:29;;;;;;;4.30;3.90;;;;;;;;;;5094180;28;20500;-59
2023/06/15 11:19:57;;;;;;;4.37;3.97;;;;;;;;;;5093545;28;20883;-59
2023/06/15 11:22:27;;;;;;;6.13;4.00;;;;;;;;;;5093999;28;20450;-58
2023/06/15 11:24:55;;;;;;;6.87;4.07;;;;;;;;;;5094071;28;20459;-59
2023/06/15 11:27:22;;;;;;;4.83;3.80;;;;;;;;;;5094006;28;20545;-59
2023/06/15 11:29:55;;;;;;;5.00;3.63;;;;;;;;;;5094006;28;20459;-59
2023/06/15 11:32:26;;;;;;;4.03;3.10;;;;;;;;;;5093817;28;20526;-59
2023/06/15 11:34:57;;;;;;;6.23;3.57;;;;;;;;;;5093766;28;20802;-59
2023/06/15 11:37:27;;;;;;;5.50;3.20;;;;;;;;;;5093926;28;20447;-59
2023/06/15 11:39:54;;;;;;;3.03;2.83;;;;;;;;;;5093849;28;20487;-60
2023/06/15 11:42:22;;;;;;;4.07;3.37;;;;;;;;;;5093738;28;20865;-59
2023/06/15 11:44:50;;;;;;;6.80;3.70;;;;;;;;;;5093583;28;20479;-58
2023/06/15 11:47:18;;;;;;;3.17;2.97;;;;;;;;;;5093451;28;20849;-59
2023/06/15 11:49:47;;;;;;;3.97;3.47;;;;;;;;;;5093719;28;20479;-59
2023/06/15 11:52:16;;;;;;;4.33;3.90;;;;;;;;;;5093677;28;20455;-59
2023/06/15 11:54:43;;;;;;;5.60;3.67;;;;;;;;;;5093364;28;20454;-59
2023/06/15 11:57:10;;;;;;;3.80;3.40;;;;;;;;;;5093574;28;20451;-59
2023/06/15 11:59:38;;;;;;;3.37;3.07;;;;;;;;;;5093385;28;20534;-59
2023/06/15 12:02:07;;;;;;;4.03;3.30;;;;;;;;;;5093261;28;20997;-59
2023/06/15 12:04:34;;;;;;;3.60;3.10;;;;;;;;;;5093509;28;20541;-59
2023/06/15 12:07:04;;;;;;;5.87;4.03;;;;;;;;;;5093301;28;20473;-59
2023/06/15 12:09:31;;;;;;;8.50;4.13;;;;;;;;;;5093509;28;20962;-59
2023/06/15 12:11:58;;;;;;;10.53;3.73;;;;;;;;;;5093265;28;20833;-59
2023/06/15 12:14:26;;;;;;;5.43;3.90;;;;;;;;;;5093005;28;20443;-58
2023/06/15 12:16:54;;;;;;;3.60;3.30;;;;;;;;;;5093138;28;20834;-60
2023/06/15 12:19:22;;;;;;;4.50;3.63;;;;;;;;;;5093077;28;20447;-59
2023/06/15 12:21:49;;;;;;;3.80;3.60;;;;;;;;;;5093099;28;20926;-59
2023/06/15 12:24:17;;;;;;;4.77;3.70;;;;;;;;;;5093131;28;20479;-59
2023/06/15 12:26:49;;;;;;;4.70;4.10;;;;;;;;;;5092738;28;20451;-58
2023/06/15 12:29:17;;;;;;;4.37;3.97;;;;;;;;;;5093162;28;20479;-58
2023/06/15 12:31:47;;;;;;;5.00;3.80;;;;;;;;;;5092867;28;20962;-58
2023/06/15 12:34:14;;;;;;;3.70;3.50;;;;;;;;;;5093015;28;20504;-58
2023/06/15 12:36:42;;;;;;;4.30;3.37;;;;;;;;;;5093012;28;20445;-58
2023/06/15 12:39:11;;;;;;;4.60;3.73;;;;;;;;;;5092789;28;20453;-58
2023/06/15 12:41:42;;;;;;;4.50;3.60;;;;;;;;;;5092972;28;20807;-58
2023/06/15 12:44:09;;;;;;;6.80;3.10;;;;;;;;;;5093120;28;20535;-58
2023/06/15 12:46:39;;;;;;;4.20;3.60;;;;;;;;;;5092756;28;20483;-58
2023/06/15 12:49:06;;;;;;;4.97;3.40;;;;;;;;;;5092839;28;20447;-58
2023/06/15 12:51:33;;;;;;;4.93;3.50;;;;;;;;;;5092803;28;20443;-58
2023/06/15 12:54:03;;;;;;;4.50;2.87;;;;;;;;;;5092620;28;20505;-58
2023/06/15 12:56:30;;;;;;;3.30;3.00;;;;;;;;;;5092266;28;20506;-58
2023/06/15 12:58:57;;;;;;;4.23;3.93;;;;;;;;;;5092639;28;20454;-58
2023/06/15 13:01:24;;;;;;;4.17;3.13;;;;;;;;;;5092558;28;20808;-58
2023/06/15 13:03:51;;;;;;;7.07;3.23;;;;;;;;;;5092561;28;20534;-58
2023/06/15 13:06:18;;;;;;;6.77;3.30;;;;;;;;;;5092396;28;20453;-59
2023/06/15 13:08:45;;;;;;;3.83;3.30;;;;;;;;;;5092603;28;20483;-58
2023/06/15 13:11:13;;;;;;;3.43;3.13;;;;;;;;;;5092640;28;20447;-59
2023/06/15 13:13:40;;;;;;;4.10;2.87;;;;;;;;;;5092542;28;20447;-58
2023/06/15 13:16:07;;;;;;;9.93;4.77;;;;;;;;;;5092318;28;21007;-58
2023/06/15 13:18:34;;;;;;;8.27;5.13;;;;;;;;;;5092368;28;20451;-58
2023/06/15 13:21:01;;;;;;;3.40;3.00;;;;;;;;;;5092163;28;20466;-58
2023/06/15 13:23:28;;;;;;;3.83;3.50;;;;;;;;;;5092412;28;20540;-58
2023/06/15 13:25:56;;;;;;;9.30;3.43;;;;;;;;;;5092302;28;20782;-58
2023/06/15 13:28:24;;;;;;;5.60;2.97;;;;;;;;;;5092158;28;20446;-58
2023/06/15 13:30:51;;;;;;;4.83;4.33;;;;;;;;;;5092225;28;20447;-58
2023/06/15 13:33:19;;;;;;;3.53;3.23;;;;;;;;;;5092226;28;20533;-59
2023/06/15 13:35:46;;;;;;;3.77;3.57;;;;;;;;;;5092127;28;20453;-58
2023/06/15 13:38:13;;;;;;;8.50;3.60;;;;;;;;;;5092617;28;20533;-58
2023/06/15 13:40:40;;;;;;;5.47;4.17;;;;;;;;;;5092195;28;20548;-58
2023/06/15 13:43:07;;;;;;;6.23;3.30;;;;;;;;;;5093052;28;20496;-59
2023/06/15 13:45:36;;;;;;;3.97;3.60;;;;;;;;;;5095890;28;20457;-58
2023/06/15 13:48:02;;;;;;;3.77;3.30;;;;;;;;;;5095707;28;20541;-58
2023/06/15 13:50:29;;;;;;;5.10;3.00;;;;;;;;;;5095841;28;20942;-58
2023/06/15 13:52:59;;;;;;;3.53;3.33;;;;;;;;;;5095990;28;20450;-58
2023/06/15 13:55:26;;;;;;;4.17;3.77;;;;;;;;;;5095795;28;20915;-58
2023/06/15 13:57:52;;;;;;;7.00;3.90;;;;;;;;;;5095695;28;20447;-58
2023/06/15 14:00:20;;;;;;;5.27;2.83;;;;;;;;;;5095698;28;20449;-58
2023/06/15 14:02:49;;;;;;;5.43;4.20;;;;;;;;;;5095555;28;20540;-59
2023/06/15 14:05:16;;;;;;;3.87;3.57;;;;;;;;;;5095735;28;20460;-59
2023/06/15 14:07:43;;;;;;;7.40;4.03;;;;;;;;;;5095537;28;20447;-58
2023/06/15 14:10:11;;;;;;;4.83;3.30;;;;;;;;;;5095621;28;20891;-58
2023/06/15 14:12:38;;;;;;;8.40;3.47;;;;;;;;;;5095484;28;20453;-58
2023/06/15 14:15:06;;;;;;;3.10;2.90;;;;;;;;;;5095375;28;20538;-59
2023/06/15 14:17:33;;;;;;;4.17;3.37;;;;;;;;;;5095730;28;20451;-58
2023/06/15 14:20:01;;;;;;;4.17;3.87;;;;;;;;;;5095420;28;20447;-59
2023/06/15 14:22:29;;;;;;;3.80;3.50;;;;;;;;;;5095292;28;20482;-58
2023/06/15 14:24:56;;;;;;;4.20;3.90;;;;;;;;;;5095398;28;20851;-58
2023/06/15 14:27:23;;;;;;;4.43;3.80;;;;;;;;;;5095052;28;20451;-58
2023/06/15 14:29:50;;;;;;;4.10;3.70;;;;;;;;;;5094976;28;20473;-57
2023/06/15 14:32:17;;;;;;;3.50;3.20;;;;;;;;;;5095161;28;20454;-57
2023/06/15 14:34:44;;;;;;;3.63;3.17;;;;;;;;;;5095070;28;20454;-58
2023/06/15 14:37:12;;;;;;;12.33;5.30;;;;;;;;;;5094911;28;20809;-60
2023/06/15 14:39:39;;;;;;;3.97;3.67;;;;;;;;;;5094950;28;20806;-59
2023/06/15 14:42:06;;;;;;;5.10;3.90;;;;;;;;;;5094807;28;20478;-58
2023/06/15 14:44:33;;;;;;;6.47;3.43;;;;;;;;;;5094718;28;20443;-57
2023/06/15 14:47:00;;;;;;;4.27;3.43;;;;;;;;;;5094917;28;20538;-58